Time;durP1;ratioP1;P1;durP2;ratioP2;P2;SDS_P1;SDS_P2;PMS_P1;PMS_P2;Temp;Humidity;BMP_temperature;BMP_pressure;BME280_temperature;BME280_humidity;BME280_pressure;Samples;Min_cycle;Max_cycle;Signal;HPM_P1;HPM_P2
2022/11/02 00:00:22;;;;;;;;;0.00;0.00;;;;;15.65;64.64;101587.53;4996530;28;45479;-68
2022/11/02 00:02:47;;;;;;;;;2.00;0.50;;;;;15.20;65.91;101506.34;4995884;28;47368;-68
2022/11/02 00:05:13;;;;;;;;;0.00;0.00;;;;;15.43;66.63;101558.56;4995750;28;45373;-68
2022/11/02 00:07:40;;;;;;;;;0.00;0.00;;;;;15.33;66.55;101547.53;4996549;28;45313;-68
2022/11/02 00:10:06;;;;;;;;;1.00;1.00;;;;;15.54;67.20;101571.28;4995978;28;45375;-68
2022/11/02 00:12:31;;;;;;;;;0.00;0.00;;;;;15.35;67.80;101551.00;4995521;28;46728;-68
2022/11/02 00:14:56;;;;;;;;;0.00;0.00;;;;;15.45;67.87;101589.75;4995344;28;45443;-68
2022/11/02 00:17:22;;;;;;;;;0.00;0.00;;;;;15.31;68.20;101555.69;4995656;28;45344;-67
2022/11/02 00:19:48;;;;;;;;;2.00;2.00;;;;;15.33;68.04;101569.03;4995869;28;45452;-68
2022/11/02 00:22:13;;;;;;;;;1.00;0.00;;;;;15.46;68.06;101596.84;4995815;28;45424;-68
2022/11/02 00:24:39;;;;;;;;;3.00;0.00;;;;;15.36;68.58;101590.34;4995441;28;45625;-68
2022/11/02 00:27:05;;;;;;;;;2.50;0.00;;;;;15.27;68.87;101574.84;4995999;28;45453;-68
2022/11/02 00:29:32;;;;;;;;;0.25;0.25;;;;;15.28;68.54;101581.94;4994337;28;45677;-68
2022/11/02 00:31:57;;;;;;;;;1.00;0.00;;;;;15.36;68.98;101605.59;4995724;28;47681;-67
2022/11/02 00:34:23;;;;;;;;;3.25;3.00;;;;;15.31;68.49;101598.72;4995520;28;45387;-68
2022/11/02 00:36:48;;;;;;;;;3.33;0.00;;;;;15.09;68.83;101574.22;4995882;28;45684;-68
2022/11/02 00:39:13;;;;;;;;;0.00;0.00;;;;;15.16;68.87;101606.91;4995787;28;45511;-68
2022/11/02 00:41:39;;;;;;;;;0.00;0.00;;;;;15.11;68.79;101593.78;4995468;28;46498;-68
2022/11/02 00:44:04;;;;;;;;;1.25;0.00;;;;;14.91;69.03;101574.47;5010413;28;45533;-68
2022/11/02 00:46:29;;;;;;;;;1.00;1.00;;;;;15.14;69.22;101624.03;4995241;28;45382;-67
2022/11/02 00:48:55;;;;;;;;;1.00;1.00;;;;;15.09;68.75;101606.47;4995636;28;45501;-68
2022/11/02 00:51:20;;;;;;;;;3.33;1.00;;;;;14.98;68.52;101591.03;4995068;28;46457;-68
2022/11/02 00:53:45;;;;;;;;;1.00;1.00;;;;;15.08;68.51;101619.03;4995454;28;45414;-68
2022/11/02 00:56:11;;;;;;;;;1.00;1.00;;;;;14.90;68.48;101599.59;4994179;28;45391;-68
2022/11/02 00:58:36;;;;;;;;;0.00;0.00;;;;;15.12;68.14;101631.31;4995184;28;45437;-67
2022/11/02 01:01:06;;;;;;;;;1.75;0.75;;;;;14.97;67.78;101613.50;4993971;28;45425;-66
2022/11/02 01:03:31;;;;;;;;;0.00;0.00;;;;;14.89;67.98;101618.50;4995110;28;45398;-66
2022/11/02 01:05:56;;;;;;;;;1.00;1.00;;;;;15.02;66.95;101640.94;4995229;28;45328;-66
2022/11/02 01:08:22;;;;;;;;;1.00;1.00;;;;;15.02;67.01;101646.31;4995078;28;45327;-66
2022/11/02 01:10:47;;;;;;;;;0.67;0.00;;;;;14.94;67.17;101630.66;4994030;28;46200;-66
2022/11/02 01:13:12;;;;;;;;;2.75;1.00;;;;;14.95;66.71;101644.97;4994527;28;45364;-66
2022/11/02 01:15:38;;;;;;;;;6.33;1.00;;;;;14.88;67.04;101646.31;4994585;28;45348;-66
2022/11/02 01:18:04;;;;;;;;;3.00;1.00;;;;;14.56;67.25;101612.44;4995082;28;45353;-66
2022/11/02 01:20:30;;;;;;;;;2.00;0.00;;;;;14.82;67.18;101639.50;4993479;28;45742;-66
2022/11/02 01:22:57;;;;;;;;;1.67;0.33;;;;;14.64;66.98;101598.53;5009923;28;45373;-66
2022/11/02 01:25:22;;;;;;;;;1.00;0.00;;;;;14.89;67.27;101646.22;4995050;28;45421;-66
2022/11/02 01:27:47;;;;;;;;;1.00;1.00;;;;;14.86;67.22;101642.84;4994832;28;45502;-66
2022/11/02 01:30:13;;;;;;;;;0.33;0.00;;;;;14.91;67.45;101648.78;4994985;28;45358;-66
2022/11/02 01:32:38;;;;;;;;;1.00;1.00;;;;;14.85;67.62;101643.84;4994554;28;45428;-66
2022/11/02 01:35:04;;;;;;;;;0.67;0.33;;;;;14.39;67.71;101583.94;4994493;28;45413;-66
2022/11/02 01:37:29;;;;;;;;;2.67;2.00;;;;;14.72;67.90;101644.56;4994734;28;45438;-66
2022/11/02 01:39:55;;;;;;;;;1.00;1.00;;;;;14.71;67.92;101648.25;4993929;28;46463;-66
2022/11/02 01:42:24;;;;;;;;;0.00;0.00;;;;;14.76;67.94;101661.38;4994317;28;45338;-66
2022/11/02 01:44:49;;;;;;;;;0.50;0.50;;;;;14.74;68.27;101664.16;4993387;28;45408;-66
2022/11/02 01:47:37;;;;;;;;;1.33;0.00;;;;;14.67;68.22;101653.88;4994743;28;45446;-67
2022/11/02 01:50:10;;;;;;;;;1.50;0.00;;;;;14.72;68.24;101667.91;4994212;28;46158;-67
2022/11/02 01:52:38;;;;;;;;;1.00;0.00;;;;;14.70;68.24;101662.63;4994199;28;45455;-67
2022/11/02 01:55:15;;;;;;;;;0.75;0.75;;;;;14.67;68.51;101673.56;4994193;28;45546;-66
2022/11/02 01:57:44;;;;;;;;;1.00;1.00;;;;;14.36;68.49;101623.53;4994262;28;45340;-66
2022/11/02 02:00:13;;;;;;;;;2.75;0.00;;;;;14.46;68.66;101651.53;4994332;28;46276;-68
2022/11/02 02:03:06;;;;;;;;;0.00;0.00;;;;;14.49;68.82;101672.81;4992969;28;45405;-67
2022/11/02 02:05:33;;;;;;;;;1.50;0.00;;;;;14.49;68.95;101678.19;4995059;28;45437;-68
2022/11/02 02:08:01;;;;;;;;;2.33;1.67;;;;;14.54;68.79;101675.25;4994318;28;45636;-68
2022/11/02 02:10:26;;;;;;;;;1.67;1.67;;;;;14.57;68.88;101688.47;4993584;28;45407;-68
2022/11/02 02:12:52;;;;;;;;;1.75;1.75;;;;;14.22;68.95;101651.22;4993728;28;45443;-67
2022/11/02 02:15:24;;;;;;;;;2.00;1.00;;;;;14.44;69.00;101682.97;4994294;28;45347;-68
2022/11/02 02:18:11;;;;;;;;;2.00;2.00;;;;;14.23;69.08;101659.16;4994127;28;45670;-68
2022/11/02 02:20:42;;;;;;;;;0.75;0.75;;;;;14.49;69.23;101701.50;4993699;28;45456;-68
2022/11/02 02:23:26;;;;;;;;;0.50;0.00;;;;;14.45;69.46;101700.81;4993942;28;45390;-68
2022/11/02 02:26:10;;;;;;;;;1.50;0.50;;;;;14.51;69.63;101707.63;4993886;28;45411;-68
2022/11/02 02:28:45;;;;;;;;;1.00;1.00;;;;;14.21;69.24;101660.22;4994057;28;45450;-67
2022/11/02 02:31:43;;;;;;;;;1.50;0.75;;;;;14.41;69.77;101699.28;4993652;28;45438;-68
2022/11/02 02:34:21;;;;;;;;;0.25;0.25;;;;;14.11;69.80;101655.41;4994039;28;45724;-68
2022/11/02 02:36:51;;;;;;;;;1.25;1.25;;;;;14.25;69.87;101685.91;4993182;28;45410;-68
2022/11/02 02:39:57;;;;;;;;;3.00;2.00;;;;;14.33;69.87;101704.25;4993675;28;45531;-68
2022/11/02 02:42:35;;;;;;;;;3.33;1.00;;;;;14.34;70.13;101708.66;4993078;28;47525;-68
2022/11/02 02:45:00;;;;;;;;;1.00;1.00;;;;;14.21;70.82;101705.84;4993488;28;45437;-68
2022/11/02 02:47:29;;;;;;;;;0.00;0.00;;;;;14.21;70.62;101708.50;4993998;28;45421;-68
2022/11/02 02:50:02;;;;;;;;;2.00;2.00;;;;;14.13;70.07;101691.06;4993773;28;45401;-67
2022/11/02 02:52:30;;;;;;;;;1.75;0.50;;;;;14.04;70.29;101680.88;4994896;28;46513;-68
2022/11/02 02:54:58;;;;;;;;;2.75;1.00;;;;;14.16;70.51;101715.97;4996706;28;45354;-68
2022/11/02 02:57:27;;;;;;;;;2.75;1.75;;;;;14.13;70.66;101717.91;4997491;28;45378;-68
2022/11/02 02:59:53;;;;;;;;;0.00;0.00;;;;;13.68;71.00;101655.25;4997091;28;45485;-68
2022/11/02 03:02:29;;;;;;;;;0.50;0.50;;;;;14.08;71.16;101722.66;4996683;28;46469;-68
2022/11/02 03:04:54;;;;;;;;;1.00;1.00;;;;;13.83;70.97;101687.50;4997231;28;45395;-68
2022/11/02 03:07:24;;;;;;;;;1.00;0.00;;;;;13.36;70.93;101614.22;4996914;28;45970;-68
2022/11/02 03:10:03;;;;;;;;;1.33;1.33;;;;;13.89;71.11;101704.09;4996990;28;45327;-68
2022/11/02 03:12:39;;;;;;;;;4.25;2.75;;;;;14.03;70.87;101719.38;5025545;28;45426;-70
2022/11/02 03:15:23;;;;;;;;;1.00;1.00;;;;;14.04;71.05;101726.47;5011886;28;45471;-69
2022/11/02 03:17:51;;;;;;;;;2.00;1.00;;;;;13.98;71.25;101726.81;4996950;28;45416;-68
2022/11/02 03:20:22;;;;;;;;;0.75;0.75;;;;;13.95;71.46;101730.56;4996901;28;45429;-68
2022/11/02 03:23:00;;;;;;;;;1.00;1.00;;;;;13.97;71.23;101733.16;4996485;28;46295;-68
2022/11/02 03:25:39;;;;;;;;;1.00;1.00;;;;;13.82;71.18;101709.91;5011727;28;45398;-68
2022/11/02 03:28:17;;;;;;;;;2.50;1.00;;;;;13.92;71.34;101737.94;5011594;28;45898;-68
2022/11/02 03:30:50;;;;;;;;;2.00;0.00;;;;;13.62;71.20;101685.09;4996828;28;45378;-68
2022/11/02 03:33:33;;;;;;;;;0.75;0.00;;;;;13.98;71.49;101745.59;4996627;28;45449;-68
2022/11/02 03:36:11;;;;;;;;;8.25;1.00;;;;;13.76;71.16;101708.44;4996355;28;45403;-69
2022/11/02 03:38:51;;;;;;;;;2.25;1.00;;;;;14.02;71.32;101746.28;4996341;28;45405;-68
2022/11/02 03:41:21;;;;;;;;;1.25;1.00;;;;;13.78;71.50;101723.50;4996103;28;45639;-68
2022/11/02 03:43:49;;;;;;;;;2.75;1.00;;;;;13.79;71.84;101737.75;5028016;28;45621;-68
2022/11/02 03:46:17;;;;;;;;;2.25;1.00;;;;;13.83;71.40;101747.34;4996207;28;45354;-68
2022/11/02 03:48:46;;;;;;;;;1.00;1.00;;;;;13.85;71.35;101761.56;4996551;28;45465;-68
2022/11/02 03:51:17;;;;;;;;;2.00;0.50;;;;;13.65;71.29;101735.88;4995838;28;45370;-68
2022/11/02 03:54:04;;;;;;;;;3.00;1.50;;;;;13.86;71.57;101783.84;4995996;28;45486;-68
2022/11/02 03:56:45;;;;;;;;;3.75;2.00;;;;;13.63;71.79;101753.84;5012061;28;45426;-68
2022/11/02 03:59:12;;;;;;;;;0.25;0.25;;;;;13.55;71.53;101743.56;4996344;28;45413;-68
2022/11/02 04:01:50;;;;;;;;;2.00;1.00;;;;;13.73;71.66;101776.50;4996202;28;45614;-68
2022/11/02 04:04:16;;;;;;;;;1.75;0.75;;;;;13.73;72.20;101778.34;4995830;28;47293;-69
2022/11/02 04:06:43;;;;;;;;;0.75;0.00;;;;;13.70;71.69;101779.38;4995813;28;45509;-68
2022/11/02 04:09:08;;;;;;;;;2.25;0.75;;;;;13.81;71.59;101805.59;4996029;28;45492;-68
2022/11/02 04:14:37;;;;;;;;;1.00;1.00;;;;;13.83;71.90;101802.81;4995747;28;45471;-68
2022/11/02 04:19:56;;;;;;;;;2.50;2.00;;;;;13.79;71.46;101804.78;4995285;28;45417;-68
2022/11/02 04:25:17;;;;;;;;;3.25;0.50;;;;;13.64;71.05;101785.06;4995563;28;45411;-68
2022/11/02 04:27:47;;;;;;;;;2.25;1.00;;;;;13.87;71.09;101828.50;4995475;28;45495;-68
2022/11/02 04:30:14;;;;;;;;;2.25;1.25;;;;;13.74;70.53;101813.09;4995684;28;45440;-68
2022/11/02 04:35:30;;;;;;;;;0.25;0.25;;;;;13.80;70.46;101849.44;4995312;28;45434;-68
2022/11/02 04:40:39;;;;;;;;;0.75;0.75;;;;;13.80;70.71;101854.81;4995645;28;45363;-68
2022/11/02 04:43:05;;;;;;;;;3.75;1.00;;;;;13.79;70.24;101859.31;4995476;28;45510;-68
2022/11/02 04:45:30;;;;;;;;;1.75;1.00;;;;;13.53;70.33;101816.97;4993866;28;47186;-68
2022/11/02 04:48:00;;;;;;;;;3.00;1.50;;;;;13.83;70.49;101862.66;4995430;28;45334;-68
2022/11/02 04:50:25;;;;;;;;;1.00;1.00;;;;;13.75;70.14;101851.50;4995179;28;45453;-68
2022/11/02 04:52:58;;;;;;;;;2.00;2.00;;;;;13.85;69.94;101876.88;4993920;28;45425;-68
2022/11/02 04:55:25;;;;;;;;;3.67;1.00;;;;;13.45;69.92;101826.28;4995290;28;45429;-68
2022/11/02 04:57:50;;;;;;;;;2.33;2.00;;;;;13.76;70.34;101882.75;4994861;28;45466;-68
2022/11/02 05:00:16;;;;;;;;;1.75;1.00;;;;;13.67;70.58;101861.78;4995309;28;45565;-66
2022/11/02 05:02:41;;;;;;;;;1.00;1.00;;;;;13.43;70.33;101830.88;4995221;28;45412;-66
2022/11/02 05:05:07;;;;;;;;;2.00;2.00;;;;;13.65;70.56;101866.38;4994686;28;46550;-66
2022/11/02 05:07:33;;;;;;;;;4.00;0.00;;;;;13.72;70.43;101881.19;4994961;28;45350;-66
2022/11/02 05:09:58;;;;;;;;;0.50;0.50;;;;;13.65;70.22;101861.88;4995113;28;45704;-66
2022/11/02 05:12:23;;;;;;;;;3.25;1.00;;;;;13.60;70.16;101863.94;4994929;28;45366;-67
2022/11/02 05:14:49;;;;;;;;;3.25;1.00;;;;;13.54;70.20;101853.56;4993924;28;45377;-67
2022/11/02 05:17:15;;;;;;;;;1.00;1.00;;;;;13.68;69.99;101872.44;4994829;28;45396;-66
2022/11/02 05:19:40;;;;;;;;;0.25;0.25;;;;;13.38;70.30;101832.06;4995628;28;45376;-66
2022/11/02 05:22:06;;;;;;;;;5.25;1.75;;;;;13.43;70.44;101838.91;4995597;28;45291;-67
2022/11/02 05:24:31;;;;;;;;;4.25;1.75;;;;;13.68;70.33;101891.19;4994639;28;45600;-66
2022/11/02 05:26:59;;;;;;;;;2.00;2.00;;;;;13.57;70.26;101875.69;4994910;28;45340;-67
2022/11/02 05:29:24;;;;;;;;;1.00;0.75;;;;;13.71;70.32;101912.50;4994808;28;45418;-66
2022/11/02 05:31:50;;;;;;;;;1.00;1.00;;;;;13.41;70.60;101869.44;4994584;28;45490;-67
2022/11/02 05:34:15;;;;;;;;;0.25;0.25;;;;;13.56;70.34;101890.03;4994307;28;46077;-66
2022/11/02 05:36:40;;;;;;;;;1.25;1.25;;;;;13.67;70.31;101897.53;4994714;28;45421;-66
2022/11/02 05:39:06;;;;;;;;;1.25;1.25;;;;;13.65;70.30;101887.84;4993412;28;45463;-66
2022/11/02 05:41:31;;;;;;;;;3.00;3.00;;;;;13.78;70.07;101924.63;5026997;28;45620;-67
2022/11/02 05:43:56;;;;;;;;;1.00;1.00;;;;;13.78;70.11;101921.94;4994497;28;45511;-67
2022/11/02 05:46:21;;;;;;;;;1.50;1.50;;;;;13.58;70.08;101885.47;4994358;28;45441;-67
2022/11/02 05:48:47;;;;;;;;;2.50;1.00;;;;;13.57;70.08;101888.25;4994260;28;45424;-67
2022/11/02 05:51:13;;;;;;;;;1.25;1.25;;;;;13.58;69.87;101904.25;4994447;28;45320;-67
2022/11/02 05:53:38;;;;;;;;;2.00;2.00;;;;;13.51;70.10;101899.28;4993903;28;46793;-67
2022/11/02 05:56:06;;;;;;;;;1.50;0.75;;;;;13.62;70.14;101924.56;4994286;28;45326;-67
2022/11/02 05:58:31;;;;;;;;;1.00;1.00;;;;;13.60;70.37;101923.81;4994772;28;45423;-67
2022/11/02 06:01:02;;;;;;;;;2.75;2.25;;;;;13.24;70.49;101868.47;4994509;28;45657;-66
2022/11/02 06:03:29;;;;;;;;;1.00;1.00;;;;;13.54;70.42;101916.06;4994082;28;47587;-67
2022/11/02 06:05:56;;;;;;;;;1.75;1.00;;;;;13.26;70.48;101873.75;4994096;28;45460;-67
2022/11/02 06:08:21;;;;;;;;;1.50;0.75;;;;;13.45;70.67;101914.72;4993084;28;45395;-66
2022/11/02 06:10:47;;;;;;;;;1.00;1.00;;;;;13.35;70.72;101891.16;4994439;28;45247;-67
2022/11/02 06:13:13;;;;;;;;;4.25;1.75;;;;;13.57;70.38;101917.72;4993817;28;45372;-67
2022/11/02 06:15:38;;;;;;;;;3.00;2.00;;;;;13.62;70.52;101921.03;4993851;28;45479;-67
2022/11/02 06:18:03;;;;;;;;;3.00;2.50;;;;;13.48;70.37;101905.66;4993991;28;45420;-66
2022/11/02 06:20:29;;;;;;;;;2.00;2.00;;;;;13.63;70.42;101930.78;5009232;28;45545;-66
2022/11/02 06:22:54;;;;;;;;;4.25;1.75;;;;;13.61;70.21;101925.50;4993869;28;45412;-67
2022/11/02 06:25:19;;;;;;;;;1.50;1.00;;;;;13.61;70.27;101927.34;4993975;28;45588;-67
2022/11/02 06:27:54;;;;;;;;;2.00;1.50;;;;;13.60;70.46;101934.53;4994838;28;45838;-66
2022/11/02 06:30:20;;;;;;;;;2.00;1.00;;;;;13.67;70.47;101953.84;4997513;28;45479;-67
2022/11/02 06:32:50;;;;;;;;;2.50;2.00;;;;;13.55;70.44;101933.91;4996383;28;46609;-67
2022/11/02 06:35:17;;;;;;;;;4.75;2.25;;;;;13.59;70.63;101942.63;4996315;28;45390;-67
2022/11/02 06:37:44;;;;;;;;;2.50;1.00;;;;;13.62;71.10;101958.56;4997294;28;45457;-67
2022/11/02 06:40:10;;;;;;;;;3.00;3.00;;;;;13.34;70.66;101905.53;4997531;28;45389;-67
2022/11/02 06:42:36;;;;;;;;;2.00;2.00;;;;;13.60;70.78;101944.38;4997122;28;47080;-67
2022/11/02 06:45:02;;;;;;;;;4.50;3.00;;;;;13.49;70.93;101922.63;5011593;28;45466;-67
2022/11/02 06:47:32;;;;;;;;;4.00;2.33;;;;;13.53;71.29;101945.66;4996208;28;45373;-67
2022/11/02 06:49:58;;;;;;;;;3.00;2.00;;;;;13.20;71.18;101887.47;4997488;28;45578;-67
2022/11/02 06:52:25;;;;;;;;;3.50;1.50;;;;;13.59;71.32;101961.38;5028470;28;46313;-67
2022/11/02 06:54:50;;;;;;;;;4.00;1.75;;;;;13.50;71.34;101943.13;4996820;28;45509;-67
2022/11/02 06:57:15;;;;;;;;;2.75;2.50;;;;;13.66;71.21;101976.22;4997265;28;45545;-67
2022/11/02 06:59:41;;;;;;;;;4.00;2.50;;;;;13.69;70.88;101976.06;4995683;28;45459;-67
2022/11/02 07:02:07;;;;;;;;;4.00;2.50;;;;;13.71;71.11;101994.75;4995693;28;45486;-68
2022/11/02 07:04:33;;;;;;;;;0.00;0.00;;;;;13.59;70.88;101964.97;4997128;28;45354;-68
2022/11/02 07:06:58;;;;;;;;;0.50;0.50;;;;;13.60;70.88;101961.34;5028792;28;45314;-68
2022/11/02 07:09:23;;;;;;;;;4.00;3.00;;;;;13.57;70.90;101961.47;4997147;28;45427;-68
2022/11/02 07:11:49;;;;;;;;;1.75;1.75;;;;;13.72;71.05;101981.25;4996975;28;45352;-68
2022/11/02 07:14:14;;;;;;;;;0.75;0.00;;;;;13.66;71.02;101968.19;4995995;28;45478;-68
2022/11/02 07:16:39;;;;;;;;;6.00;3.50;;;;;13.58;71.39;101965.91;4996931;28;45599;-68
2022/11/02 07:19:04;;;;;;;;;3.75;3.25;;;;;13.71;71.13;101987.59;4996779;28;45313;-68
2022/11/02 07:21:30;;;;;;;;;3.00;1.75;;;;;13.45;71.23;101946.91;4996459;28;46443;-69
2022/11/02 07:23:55;;;;;;;;;5.00;2.50;;;;;12.58;71.32;101804.97;4995306;28;45442;-69
2022/11/02 07:26:20;;;;;;;;;8.00;5.50;;;;;13.66;71.06;101986.94;4996593;28;45462;-69
2022/11/02 07:28:46;;;;;;;;;4.25;3.00;;;;;13.65;71.49;101987.91;4996361;28;45534;-68
2022/11/02 07:31:11;;;;;;;;;1.00;1.00;;;;;13.56;71.78;101973.13;4996670;28;46747;-68
2022/11/02 07:33:36;;;;;;;;;5.25;2.50;;;;;13.63;71.31;101971.88;4997401;28;45344;-68
2022/11/02 07:36:04;;;;;;;;;1.50;1.50;;;;;13.84;71.06;101995.81;4996662;28;45356;-68
2022/11/02 07:38:29;;;;;;;;;3.00;2.00;;;;;13.72;70.63;101973.19;4996506;28;45457;-69
2022/11/02 07:40:55;;;;;;;;;4.50;3.25;;;;;13.89;70.91;101993.78;4996643;28;46113;-67
2022/11/02 07:43:20;;;;;;;;;2.00;2.00;;;;;13.74;70.79;101975.81;4996107;28;45527;-68
2022/11/02 07:45:45;;;;;;;;;2.50;2.25;;;;;13.95;70.79;102004.19;4996505;28;45552;-68
2022/11/02 07:48:11;;;;;;;;;6.75;2.25;;;;;13.93;70.21;101983.75;4994912;28;45523;-68
2022/11/02 07:50:36;;;;;;;;;2.50;2.50;;;;;13.50;70.08;101916.34;4996038;28;46511;-68
2022/11/02 07:53:01;;;;;;;;;1.75;1.25;;;;;13.91;70.36;101997.22;4994658;28;45410;-68
2022/11/02 07:55:29;;;;;;;;;5.75;2.00;;;;;13.99;70.20;101999.50;4996245;28;45366;-69
2022/11/02 07:58:02;;;;;;;;;2.75;2.00;;;;;13.95;70.84;102006.88;4995871;28;45436;-68
2022/11/02 08:00:34;;;;;;;;;4.50;2.50;;;;;13.93;70.20;102013.25;4996511;28;46292;-67
2022/11/02 08:03:01;;;;;;;;;3.25;2.00;;;;;13.75;70.71;101967.69;4996153;28;45435;-67
2022/11/02 08:05:27;;;;;;;;;3.00;2.50;;;;;14.04;70.44;102007.31;4995741;28;45500;-67
2022/11/02 08:08:01;;;;;;;;;6.75;3.00;;;;;14.10;70.11;102006.97;4995715;28;45346;-67
2022/11/02 08:10:28;;;;;;;;;4.25;2.25;;;;;14.17;70.03;102007.50;4995706;28;45616;-68
2022/11/02 08:12:54;;;;;;;;;4.50;4.00;;;;;14.10;69.91;101993.56;4995545;28;45443;-67
2022/11/02 08:15:20;;;;;;;;;3.00;2.00;;;;;14.13;69.79;101996.94;4995507;28;45339;-66
2022/11/02 08:17:45;;;;;;;;;3.00;2.00;;;;;14.24;69.66;102004.41;4996496;28;45347;-67
2022/11/02 08:20:10;;;;;;;;;2.25;2.25;;;;;14.35;69.48;102003.81;4996126;28;46197;-67
2022/11/02 08:22:39;;;;;;;;;4.25;1.50;;;;;14.48;69.23;102009.34;4995325;28;45429;-67
2022/11/02 08:25:06;;;;;;;;;3.00;2.00;;;;;14.44;67.53;101980.94;4995791;28;45401;-67
2022/11/02 08:27:32;;;;;;;;;3.25;2.50;;;;;14.83;68.11;102008.38;4995499;28;45355;-67
2022/11/02 08:29:57;;;;;;;;;2.00;2.00;;;;;14.70;67.18;101978.63;5027069;28;47606;-67
2022/11/02 08:32:23;;;;;;;;;1.25;1.25;;;;;14.90;67.08;102004.34;4995298;28;45356;-67
2022/11/02 08:34:48;;;;;;;;;5.25;2.25;;;;;15.04;67.62;102003.59;4995943;28;45395;-67
2022/11/02 08:37:13;;;;;;;;;2.50;2.25;;;;;15.10;66.54;102004.09;4995958;28;45440;-67
2022/11/02 08:39:39;;;;;;;;;2.00;2.00;;;;;15.20;66.71;102008.94;4995813;28;46398;-68
2022/11/02 08:42:04;;;;;;;;;2.75;2.00;;;;;15.31;66.16;102011.84;4995187;28;45354;-67
2022/11/02 08:44:29;;;;;;;;;1.67;1.67;;;;;15.44;65.49;102002.09;4995329;28;45417;-68
2022/11/02 08:46:55;;;;;;;;;3.00;1.25;;;;;15.45;64.82;102005.63;4995732;28;45500;-67
2022/11/02 08:49:20;;;;;;;;;1.25;1.25;;;;;15.40;65.51;101973.66;4994283;28;45566;-67
2022/11/02 08:51:46;;;;;;;;;2.25;1.25;;;;;15.61;64.91;101992.13;4993931;28;45284;-68
2022/11/02 08:54:12;;;;;;;;;3.25;2.75;;;;;15.80;64.61;102018.78;4995563;28;45485;-67
2022/11/02 08:56:37;;;;;;;;;0.25;0.25;;;;;15.80;64.31;102002.66;4995199;28;45537;-68
2022/11/02 08:59:03;;;;;;;;;1.50;1.50;;;;;16.02;64.11;102009.41;4995121;28;46502;-67
2022/11/02 09:01:28;;;;;;;;;5.75;3.00;;;;;15.73;63.32;101963.63;4995152;28;45366;-68
2022/11/02 09:03:53;;;;;;;;;4.25;2.25;;;;;16.08;63.50;102009.03;4995549;28;45336;-68
2022/11/02 09:06:18;;;;;;;;;4.25;3.00;;;;;16.11;63.40;101996.25;4995277;28;45402;-68
2022/11/02 09:08:44;;;;;;;;;0.00;0.00;;;;;16.30;62.72;102006.72;5027219;28;46090;-69
2022/11/02 09:11:09;;;;;;;;;2.67;2.00;;;;;16.26;62.51;101990.84;4995375;28;45618;-69
2022/11/02 09:13:37;;;;;;;;;1.75;1.00;;;;;16.29;62.49;102007.66;4994954;28;45450;-69
2022/11/02 09:16:02;;;;;;;;;3.50;2.50;;;;;16.21;61.53;101990.25;4995740;28;45442;-69
2022/11/02 09:18:28;;;;;;;;;9.75;3.00;;;;;16.34;61.89;101991.19;5026621;28;45418;-69
2022/11/02 09:20:53;;;;;;;;;0.00;0.00;;;;;16.28;61.21;101965.53;4995016;28;45512;-69
2022/11/02 09:23:20;;;;;;;;;1.67;1.33;;;;;16.53;61.47;102007.03;4995445;28;45437;-70
2022/11/02 09:25:45;;;;;;;;;2.33;2.00;;;;;16.41;61.64;101960.25;4994989;28;45464;-70
2022/11/02 09:28:11;;;;;;;;;4.75;3.00;;;;;16.55;60.94;101988.13;4994553;28;45438;-69
2022/11/02 09:30:37;;;;;;;;;3.67;2.00;;;;;16.41;60.47;101953.97;4994926;28;45492;-70
2022/11/02 09:33:04;;;;;;;;;2.33;1.67;;;;;16.93;60.71;101993.69;4994875;28;45725;-69
2022/11/02 09:35:39;;;;;;;;;1.00;1.00;;;;;18.16;58.10;101987.06;4994979;28;45339;-69
2022/11/02 09:38:05;;;;;;;;;1.75;1.75;;;;;20.96;53.46;101984.44;4994819;28;46794;-69
2022/11/02 09:40:36;;;;;;;;;2.00;2.00;;;;;22.23;46.39;101980.81;4994698;28;45477;-69
2022/11/02 09:43:39;;;;;;;;;4.50;1.25;;;;;21.03;49.67;101984.78;4994882;28;45292;-70
2022/11/02 09:46:08;;;;;;;;;4.00;2.33;;;;;20.13;50.38;101986.66;4995067;28;45343;-70
2022/11/02 09:48:37;;;;;;;;;1.67;1.67;;;;;19.67;51.84;101949.69;4994392;28;46146;-68
2022/11/02 09:51:17;;;;;;;;;1.00;1.00;;;;;20.52;51.27;101988.97;4994395;28;45350;-68
2022/11/02 09:53:59;;;;;;;;;0.00;0.00;;;;;20.30;50.62;101987.16;4994268;28;45390;-69
2022/11/02 09:56:26;;;;;;;;;2.00;1.00;;;;;19.98;50.89;101979.78;4994419;28;45539;-69
2022/11/02 09:59:12;;;;;;;;;6.33;1.00;;;;;20.06;51.59;101958.34;4994149;28;45648;-69
2022/11/02 10:02:15;;;;;;;;;2.67;1.00;;;;;20.06;50.34;101988.16;4994232;28;45353;-69
2022/11/02 10:04:55;;;;;;;;;1.67;1.67;;;;;20.10;51.66;101983.34;4994189;28;45416;-69
2022/11/02 10:07:42;;;;;;;;;2.67;1.67;;;;;20.02;52.10;101983.97;4994520;28;45461;-69
2022/11/02 10:10:16;;;;;;;;;4.00;2.00;;;;;19.97;52.88;101949.09;4993939;28;45451;-70
2022/11/02 10:12:41;;;;;;;;;3.33;1.33;;;;;20.22;51.98;101978.75;4993926;28;45562;-69
2022/11/02 10:15:18;;;;;;;;;3.67;0.67;;;;;20.39;52.64;101982.81;4994189;28;45369;-70
2022/11/02 10:17:46;;;;;;;;;1.00;1.00;;;;;20.31;52.23;101957.22;4994588;28;45614;-69
2022/11/02 10:20:32;;;;;;;;;4.00;2.00;;;;;20.42;52.13;101986.16;4994072;28;45469;-70
2022/11/02 10:23:02;;;;;;;;;1.00;1.00;;;;;20.34;51.39;101983.22;4994203;28;45413;-69
2022/11/02 10:25:28;;;;;;;;;2.67;1.67;;;;;20.26;51.98;101983.84;4994715;28;45402;-69
2022/11/02 10:28:03;;;;;;;;;2.67;1.33;;;;;20.14;52.06;101987.53;4994327;28;45669;-69
2022/11/02 10:30:29;;;;;;;;;0.00;0.00;;;;;19.91;50.84;101987.53;4994106;28;45631;-70
2022/11/02 10:32:55;;;;;;;;;3.00;1.67;;;;;19.67;52.56;101961.38;5009043;28;45461;-70
2022/11/02 10:35:38;;;;;;;;;1.00;1.00;;;;;19.77;53.42;101983.19;4992856;28;45667;-69
2022/11/02 10:38:41;;;;;;;;;3.50;2.75;;;;;19.37;53.08;101963.75;4994271;28;45442;-70
2022/11/02 10:41:16;;;;;;;;;2.33;2.33;;;;;19.38;52.85;101985.31;4994033;28;45394;-70
2022/11/02 10:44:09;;;;;;;;;2.00;2.00;;;;;19.29;53.23;101994.97;4994110;28;45464;-70
2022/11/02 10:46:51;;;;;;;;;3.00;2.00;;;;;19.15;52.93;101992.47;4994614;28;45438;-70
2022/11/02 10:49:53;;;;;;;;;3.67;1.00;;;;;18.91;52.49;101982.53;4993672;28;45307;-69
2022/11/02 10:52:18;;;;;;;;;3.33;1.00;;;;;18.58;53.47;101945.34;4993717;28;45475;-70
2022/11/02 10:54:44;;;;;;;;;3.00;2.00;;;;;18.51;53.70;101960.31;4993931;28;45805;-70
2022/11/02 10:57:12;;;;;;;;;0.00;0.00;;;;;18.31;54.35;101974.31;4994082;28;45877;-70
2022/11/02 10:59:37;;;;;;;;;1.67;0.67;;;;;18.26;53.68;101967.47;4994096;28;45628;-70
2022/11/02 11:02:12;;;;;;;;;1.00;1.00;;;;;18.07;54.77;101939.13;4993422;28;46165;-68
2022/11/02 11:04:38;;;;;;;;;3.00;2.00;;;;;18.38;55.50;101982.81;5008738;28;45389;-67
2022/11/02 11:07:17;;;;;;;;;2.00;2.00;;;;;18.48;54.83;101973.06;4992402;28;45379;-68
2022/11/02 11:09:55;;;;;;;;;3.00;0.00;;;;;18.44;54.29;101982.34;4994304;28;45498;-67
2022/11/02 11:12:39;;;;;;;;;0.75;0.75;;;;;18.47;55.07;101955.09;4992628;28;45477;-67
2022/11/02 11:15:15;;;;;;;;;3.25;3.00;;;;;18.60;54.45;101962.34;4996736;28;45387;-67
2022/11/02 11:17:40;;;;;;;;;2.00;2.00;;;;;18.65;54.85;101955.59;4996916;28;45299;-68
2022/11/02 11:20:24;;;;;;;;;1.75;1.75;;;;;18.79;53.51;101949.16;4996771;28;45467;-67
2022/11/02 11:23:18;;;;;;;;;1.50;1.50;;;;;18.58;55.54;101961.56;5012562;28;46678;-66
2022/11/02 11:25:59;;;;;;;;;5.50;2.00;;;;;18.71;55.20;101938.06;4996427;28;45399;-67
2022/11/02 11:28:27;;;;;;;;;2.25;2.25;;;;;19.13;55.18;101952.03;4995272;28;45410;-67
2022/11/02 11:31:04;;;;;;;;;2.75;1.75;;;;;19.39;53.82;101945.59;4996464;28;45449;-66
2022/11/02 11:33:32;;;;;;;;;1.50;1.00;;;;;19.45;52.90;101953.22;4996007;28;45453;-67
2022/11/02 11:35:58;;;;;;;;;1.00;1.00;;;;;19.50;54.20;101949.19;4996125;28;45525;-67
2022/11/02 11:38:26;;;;;;;;;0.33;0.33;;;;;19.44;52.38;101922.59;4996344;28;45410;-66
2022/11/02 11:40:54;;;;;;;;;2.50;1.00;;;;;19.36;52.98;101905.25;4996512;28;45444;-67
2022/11/02 11:43:24;;;;;;;;;3.67;0.33;;;;;19.65;52.72;101932.69;4995884;28;45402;-67
2022/11/02 11:46:01;;;;;;;;;1.00;1.00;;;;;19.50;52.44;101891.47;4996411;28;45431;-68
2022/11/02 11:48:44;;;;;;;;;6.75;2.00;;;;;19.86;51.54;101927.47;4996270;28;45458;-68